Terminal Aerodrome Forecast
Issued by NWS

Current Version | Previous Version | Graphics & Text | Print | Product List | Glossary On
Versions: 1 2 3 4 5 6 7 8 9 10 11 12 13 14 15 16 17 18 19 20 21 22 23 24 25
000
FTUS41 KRLX 210829 AAA
TAFCKB
TAF AMD
KCKB 210829Z 2108/2206 VRB03KT 6SM -RA BKN050
      TEMPO 2109/2113 6SM -RA BKN040
     FM211300 VRB03KT P6SM BKN015
     FM211700 VRB03KT P6SM BKN025
     FM220200 30004KT P6SM SCT025
     FM220500 VRB03KT P6SM SCT045=

USA.gov is the U.S. government's official web portal to all federal, state and local government web resources and services.